Time;durP1;ratioP1;P1;durP2;ratioP2;P2;SDS_P1;SDS_P2;PMS_P1;PMS_P2;Temp;Humidity;BMP_temperature;BMP_pressure;BME280_temperature;BME280_humidity;BME280_pressure;Samples;Min_cycle;Max_cycle;Signal;HPM_P1;HPM_P2
2021/12/31 00:03:10;;;;;;;21.87;11.70;;;;;;;9.11;100.00;99000.84;4128999;85;28550;-80
2021/12/31 00:09:11;;;;;;;17.45;9.68;;;;;;;9.65;100.00;99009.63;4206929;83;28569;-79
2021/12/31 00:15:13;;;;;;;13.98;8.25;;;;;;;9.79;100.00;99019.67;4232986;83;28430;-82
2021/12/31 00:21:14;;;;;;;13.40;7.40;;;;;;;9.95;100.00;99023.59;4214871;83;28464;-83
2021/12/31 00:27:15;;;;;;;12.25;6.70;;;;;;;10.00;100.00;99018.37;4233135;82;28451;-85
2021/12/31 00:33:17;;;;;;;10.08;6.15;;;;;;;10.21;100.00;99027.77;4204368;83;28497;-78
2021/12/31 00:39:18;;;;;;;8.95;5.10;;;;;;;10.26;100.00;99023.89;4204090;83;28535;-80
2021/12/31 00:45:24;;;;;;;9.75;5.50;;;;;;;10.30;100.00;99018.34;4194649;83;28951;-80
2021/12/31 00:51:25;;;;;;;10.50;6.05;;;;;;;10.48;100.00;99045.41;4199662;83;28523;-80
2021/12/31 00:57:26;;;;;;;8.50;4.35;;;;;;;10.52;100.00;99043.37;4198070;83;28485;-81
2021/12/31 01:03:28;;;;;;;6.55;4.45;;;;;;;10.59;100.00;99034.69;4186180;83;28564;-81
2021/12/31 01:09:31;;;;;;;5.90;3.90;;;;;;;10.79;100.00;99040.27;4221548;82;28740;-81
2021/12/31 01:15:45;;;;;;;6.90;3.87;;;;;;;10.67;100.00;99036.72;4246392;82;28472;-82
2021/12/31 01:21:44;;;;;;;6.58;4.35;;;;;;;10.88;100.00;99044.77;4217724;81;28519;-81
2021/12/31 01:27:45;;;;;;;6.87;4.40;;;;;;;10.99;100.00;99045.30;4221801;82;28501;-81
2021/12/31 01:33:47;;;;;;;7.17;4.75;;;;;;;10.86;100.00;99050.37;4250094;82;28478;-81
2021/12/31 01:39:48;;;;;;;6.37;4.28;;;;;;;11.01;100.00;99055.84;4197487;82;28572;-81
2021/12/31 01:45:55;;;;;;;6.53;4.53;;;;;;;10.97;100.00;99050.09;4136330;84;28527;-80
2021/12/31 01:51:56;;;;;;;6.62;5.17;;;;;;;11.13;100.00;99059.34;4135520;84;28493;-85
2021/12/31 01:57:58;;;;;;;7.33;4.90;;;;;;;11.09;100.00;99058.69;4130770;84;28505;-85
2021/12/31 02:04:00;;;;;;;7.45;4.85;;;;;;;11.26;100.00;99073.09;4140029;84;28478;-85
2021/12/31 02:10:01;;;;;;;6.17;4.85;;;;;;;11.27;100.00;99073.89;4146887;84;28523;-80
2021/12/31 02:16:03;;;;;;;6.78;4.87;;;;;;;11.25;100.00;99071.45;4147039;84;28559;-80
2021/12/31 02:22:05;;;;;;;5.97;4.60;;;;;;;11.26;100.00;99064.19;4164456;82;28523;-83
2021/12/31 02:28:06;;;;;;;6.78;5.03;;;;;;;11.37;100.00;99061.20;4126909;84;28603;-81
2021/12/31 02:34:08;;;;;;;6.87;5.10;;;;;;;11.41;100.00;99044.86;4232176;82;28498;-77
2021/12/31 02:40:14;;;;;;;6.50;4.87;;;;;;;11.52;100.00;99056.68;4247160;82;28453;-78
2021/12/31 02:46:15;;;;;;;7.50;5.00;;;;;;;11.49;100.00;99062.00;4231443;83;28494;-80
2021/12/31 02:52:17;;;;;;;7.75;4.97;;;;;;;11.44;100.00;99066.75;4204989;83;28521;-77
2021/12/31 02:58:18;;;;;;;5.42;4.62;;;;;;;11.50;100.00;99066.84;4223856;82;28509;-78
2021/12/31 03:04:23;;;;;;;6.45;4.47;;;;;;;11.52;100.00;99069.59;4183072;83;28487;-76
2021/12/31 03:10:26;;;;;;;8.00;5.03;;;;;;;11.57;100.00;99067.03;4191325;84;28497;-79
2021/12/31 03:16:27;;;;;;;6.92;4.75;;;;;;;11.44;100.00;99061.37;4198526;83;28547;-79
2021/12/31 03:22:29;;;;;;;6.22;4.55;;;;;;;11.48;100.00;99066.27;4139464;85;28477;-77
2021/12/31 03:28:30;;;;;;;7.00;4.95;;;;;;;11.47;100.00;99066.81;4157460;83;28488;-77
2021/12/31 03:34:31;;;;;;;5.85;4.42;;;;;;;11.54;100.00;99069.38;4174706;84;28522;-78
2021/12/31 03:40:33;;;;;;;6.83;4.78;;;;;;;11.59;100.00;99065.42;4108026;85;28596;-77
2021/12/31 03:46:34;;;;;;;6.17;4.37;;;;;;;11.70;100.00;99074.01;4012648;88;28466;-78
2021/12/31 03:52:40;;;;;;;6.00;4.35;;;;;;;11.62;100.00;99072.22;4175146;83;28527;-79
2021/12/31 03:58:41;;;;;;;5.73;4.07;;;;;;;11.70;100.00;99074.55;4193880;85;28532;-79
2021/12/31 04:04:42;;;;;;;5.42;4.10;;;;;;;11.64;100.00;99076.32;4186776;85;28485;-79
2021/12/31 04:10:43;;;;;;;6.25;4.05;;;;;;;11.70;100.00;99079.39;4131919;85;28538;-79
2021/12/31 04:16:45;;;;;;;5.85;4.00;;;;;;;11.66;100.00;99083.62;4126960;84;28506;-78
2021/12/31 04:22:57;;;;;;;5.17;4.28;;;;;;;11.76;100.00;99088.40;4146124;84;28483;-80
2021/12/31 04:28:54;;;;;;;5.80;4.05;;;;;;;11.82;100.00;99086.66;4150100;84;28510;-79
2021/12/31 04:34:55;;;;;;;4.67;3.45;;;;;;;11.74;100.00;99089.17;4171101;84;28440;-79
2021/12/31 04:40:56;;;;;;;4.90;3.72;;;;;;;12.18;100.00;99106.77;4144480;84;28502;-79
2021/12/31 04:46:57;;;;;;;4.53;3.33;;;;;;;11.88;100.00;99103.74;4127248;84;28592;-79
2021/12/31 04:52:59;;;;;;;4.30;3.08;;;;;;;11.81;100.00;99101.16;4107715;84;28546;-77
2021/12/31 04:59:00;;;;;;;4.80;3.02;;;;;;;11.91;100.00;99089.23;4150927;84;28458;-77
2021/12/31 05:05:02;;;;;;;3.45;2.72;;;;;;;11.86;100.00;99080.52;4101063;84;28554;-79
2021/12/31 05:11:03;;;;;;;2.92;2.42;;;;;;;11.70;100.00;99080.74;4131924;82;28512;-79
2021/12/31 05:17:04;;;;;;;4.25;3.35;;;;;;;11.78;100.00;99079.58;4214960;83;28554;-80
2021/12/31 05:23:05;;;;;;;4.87;3.17;;;;;;;11.84;100.00;99073.77;4162839;82;28504;-79
2021/12/31 05:29:07;;;;;;;3.67;3.17;;;;;;;11.79;100.00;99065.05;4175057;83;28558;-79
2021/12/31 05:35:08;;;;;;;4.80;3.70;;;;;;;11.86;100.00;99071.09;4163884;83;28558;-79
2021/12/31 05:41:11;;;;;;;6.37;4.20;;;;;;;11.92;100.00;99088.21;4198559;83;28452;-77
2021/12/31 05:47:12;;;;;;;6.83;4.10;;;;;;;11.88;100.00;99077.60;4195732;82;28968;-77
2021/12/31 05:53:13;;;;;;;7.47;4.33;;;;;;;11.76;100.00;99079.52;4197372;83;28517;-79
2021/12/31 05:59:14;;;;;;;4.87;3.85;;;;;;;11.84;100.00;99092.62;4189899;83;28494;-77
2021/12/31 06:05:16;;;;;;;5.10;4.00;;;;;;;11.88;100.00;99092.42;4207652;83;28523;-78
2021/12/31 06:11:17;;;;;;;5.70;4.08;;;;;;;11.90;100.00;99087.61;4131857;84;28578;-77
2021/12/31 06:17:24;;;;;;;5.42;3.87;;;;;;;11.85;100.00;99090.21;4128010;84;28500;-76
2021/12/31 06:23:22;;;;;;;5.58;4.47;;;;;;;11.92;100.00;99101.68;4146327;84;28487;-77
2021/12/31 06:29:23;;;;;;;6.25;4.37;;;;;;;11.74;100.00;99096.45;4149586;84;28519;-76
2021/12/31 06:35:24;;;;;;;5.50;4.35;;;;;;;11.79;100.00;99110.01;4131198;83;28447;-76
2021/12/31 06:41:26;;;;;;;5.60;4.05;;;;;;;11.89;100.00;99110.77;4139499;84;28476;-78
2021/12/31 06:47:27;;;;;;;5.05;3.92;;;;;;;11.86;100.00;99120.12;4149084;84;28519;-77
2021/12/31 06:53:28;;;;;;;5.42;3.92;;;;;;;11.68;100.00;99123.25;4159835;84;28518;-76
2021/12/31 06:59:30;;;;;;;7.05;4.35;;;;;;;11.79;100.00;99101.41;4147067;84;28562;-78
2021/12/31 07:05:31;;;;;;;5.20;3.98;;;;;;;11.85;100.00;99109.87;4138189;84;28559;-78
2021/12/31 07:11:32;;;;;;;6.47;4.15;;;;;;;11.85;100.00;99115.80;4145927;84;28529;-78
2021/12/31 07:17:34;;;;;;;5.97;3.62;;;;;;;11.75;100.00;99123.13;4231374;82;28579;-75
2021/12/31 07:23:35;;;;;;;5.55;3.83;;;;;;;11.68;100.00;99116.52;4218721;82;28529;-77
2021/12/31 07:29:36;;;;;;;5.12;3.58;;;;;;;11.91;100.00;99122.11;4224403;82;28533;-78
2021/12/31 07:35:38;;;;;;;4.75;3.47;;;;;;;11.95;100.00;99128.66;4225050;82;28497;-78
2021/12/31 07:41:40;;;;;;;5.15;3.30;;;;;;;11.88;100.00;99126.09;4231277;82;28595;-81
2021/12/31 07:47:41;;;;;;;4.22;3.10;;;;;;;11.79;100.00;99135.08;4229039;82;28620;-81
2021/12/31 07:53:42;;;;;;;3.87;2.65;;;;;;;12.01;100.00;99139.84;4228929;81;28560;-83
2021/12/31 07:59:44;;;;;;;4.45;2.70;;;;;;;12.06;100.00;99138.61;4222042;82;28487;-78
2021/12/31 08:05:46;;;;;;;3.98;2.70;;;;;;;12.22;100.00;99142.98;4220720;82;28513;-82
2021/12/31 08:11:47;;;;;;;3.80;2.72;;;;;;;12.16;100.00;99152.84;4211021;82;28474;-76
2021/12/31 08:17:49;;;;;;;5.25;3.10;;;;;;;12.28;100.00;99146.05;4211043;82;28526;-82
2021/12/31 08:23:50;;;;;;;4.62;2.67;;;;;;;12.27;100.00;99149.28;4225034;82;28516;-76
2021/12/31 08:29:51;;;;;;;3.90;2.58;;;;;;;12.33;100.00;99159.64;4207098;82;28538;-78
2021/12/31 08:35:55;;;;;;;3.20;2.35;;;;;;;12.28;100.00;99168.95;4199913;82;28494;-79
2021/12/31 08:41:56;;;;;;;3.98;2.30;;;;;;;12.36;100.00;99170.48;4198698;82;28597;-78
2021/12/31 08:47:59;;;;;;;7.22;2.35;;;;;;;12.37;100.00;99176.97;4138507;84;28492;-83
2021/12/31 08:54:00;;;;;;;4.00;2.33;;;;;;;12.42;100.00;99177.59;4144863;84;28538;-84
2021/12/31 09:00:04;;;;;;;3.05;2.17;;;;;;;12.39;100.00;99182.12;4145305;84;28492;-81
2021/12/31 09:06:07;;;;;;;3.05;2.20;;;;;;;12.43;100.00;99191.91;4141604;84;28557;-86
2021/12/31 09:12:09;;;;;;;3.90;2.52;;;;;;;12.50;100.00;99193.40;4141920;84;28542;-91
2021/12/31 09:18:11;;;;;;;3.90;2.67;;;;;;;12.47;100.00;99199.80;4147210;84;28520;-86
2021/12/31 09:24:12;;;;;;;4.70;2.50;;;;;;;12.48;100.00;99190.64;4153637;84;28527;-84
2021/12/31 09:30:13;;;;;;;3.65;2.42;;;;;;;12.53;100.00;99193.45;4151534;84;28504;-82
2021/12/31 09:36:15;;;;;;;6.00;2.90;;;;;;;12.73;100.00;99186.81;4144407;84;28500;-83
2021/12/31 09:42:16;;;;;;;6.87;4.25;;;;;;;12.87;100.00;99191.38;4154025;84;28506;-83
2021/12/31 09:48:23;;;;;;;5.00;3.12;;;;;;;12.88;100.00;99200.56;4139133;84;28538;-85
2021/12/31 09:54:24;;;;;;;5.53;3.12;;;;;;;12.91;100.00;99203.31;4161097;84;28506;-82
2021/12/31 10:00:26;;;;;;;6.70;3.10;;;;;;;13.04;100.00;99185.46;4132935;83;28548;-85
2021/12/31 10:06:28;;;;;;;5.28;3.35;;;;;;;12.91;100.00;99185.27;4133463;83;28543;-84
2021/12/31 10:12:51;;;;;;;5.15;2.87;;;;;;;13.31;100.00;99177.25;4116016;84;28526;-83
2021/12/31 10:19:14;;;;;;;4.50;3.30;;;;;;;13.13;100.00;99175.62;4102547;85;28584;-86
2021/12/31 10:25:20;;;;;;;5.42;3.30;;;;;;;13.31;100.00;99186.70;4110113;85;28590;-85
2021/12/31 10:31:22;;;;;;;6.25;3.42;;;;;;;13.20;100.00;99178.98;4123343;85;28498;-83
2021/12/31 10:37:26;;;;;;;5.87;3.58;;;;;;;13.22;100.00;99179.03;4116075;85;28517;-85
2021/12/31 10:43:29;;;;;;;5.40;3.00;;;;;;;13.52;100.00;99179.78;4018634;86;28519;-83
2021/12/31 10:49:31;;;;;;;5.17;3.02;;;;;;;13.66;100.00;99166.20;4203826;83;28494;-83
2021/12/31 10:55:34;;;;;;;5.55;3.22;;;;;;;13.69;100.00;99157.31;4216398;83;28521;-82
2021/12/31 11:01:35;;;;;;;7.28;3.70;;;;;;;13.80;100.00;99146.41;4206411;83;28525;-82
2021/12/31 11:07:39;;;;;;;8.68;3.35;;;;;;;13.70;100.00;99146.81;4201631;83;28506;-84
2021/12/31 11:13:44;;;;;;;5.05;3.10;;;;;;;13.85;100.00;99137.55;4226816;82;28561;-85
2021/12/31 11:19:50;;;;;;;5.40;3.20;;;;;;;13.82;100.00;99136.70;4169648;82;28544;-86
2021/12/31 11:26:06;;;;;;;6.28;3.25;;;;;;;13.93;100.00;99135.77;4230890;82;28553;-85
2021/12/31 11:32:07;;;;;;;7.37;3.00;;;;;;;13.89;100.00;99131.91;4228350;82;28528;-85
2021/12/31 11:38:29;;;;;;;6.83;3.47;;;;;;;13.82;100.00;99131.82;4138419;84;28474;-85
2021/12/31 11:44:32;;;;;;;5.22;2.70;;;;;;;13.86;100.00;99116.20;4243958;82;28524;-86
2021/12/31 11:50:34;;;;;;;5.50;2.62;;;;;;;13.73;100.00;99113.88;4230942;82;28529;-85
2021/12/31 11:56:47;;;;;;;6.83;2.92;;;;;;;13.99;100.00;99112.84;4226501;82;28509;-86
2021/12/31 12:02:49;;;;;;;6.97;2.98;;;;;;;13.97;100.00;99111.77;4230973;82;28505;-85
2021/12/31 12:08:51;;;;;;;5.75;2.77;;;;;;;13.90;100.00;99113.30;4227799;82;28530;-86
2021/12/31 12:14:56;;;;;;;5.05;3.12;;;;;;;13.75;100.00;99105.81;4213772;82;28482;-87
2021/12/31 12:20:57;;;;;;;6.03;2.98;;;;;;;13.74;100.00;99091.20;4202735;82;28536;-87
2021/12/31 12:27:04;;;;;;;6.25;3.05;;;;;;;13.74;100.00;99073.63;4199672;82;28611;-84
2021/12/31 12:33:16;;;;;;;6.28;3.08;;;;;;;13.77;100.00;99078.53;4212817;82;28564;-85
2021/12/31 12:39:11;;;;;;;6.70;3.50;;;;;;;13.97;100.00;99084.73;4204243;82;28518;-86
2021/12/31 12:45:13;;;;;;;5.28;3.20;;;;;;;14.11;100.00;99089.73;4195793;82;28538;-83
2021/12/31 12:51:17;;;;;;;6.10;3.05;;;;;;;14.03;100.00;99086.41;4203650;82;28508;-83
2021/12/31 12:57:24;;;;;;;6.30;3.62;;;;;;;14.24;100.00;99093.95;4189761;82;28560;-84
2021/12/31 13:03:27;;;;;;;;;;;;;;;14.23;100.00;99082.30;4195655;83;28498;-83
2021/12/31 13:09:32;;;;;;;6.97;3.52;;;;;;;14.21;100.00;99074.46;4222204;82;20258;-84
2021/12/31 13:15:37;;;;;;;6.67;3.70;;;;;;;14.21;100.00;99069.05;4191355;82;28558;-87
2021/12/31 13:21:39;;;;;;;7.00;3.85;;;;;;;14.34;100.00;99069.71;4200021;83;35622;-83
2021/12/31 13:27:40;;;;;;;8.40;3.70;;;;;;;14.14;100.00;99060.84;4200659;83;28529;-83
2021/12/31 13:33:55;;;;;;;6.75;3.85;;;;;;;14.17;100.00;99070.61;4197031;82;28507;-84
2021/12/31 13:40:19;;;;;;;7.35;3.92;;;;;;;14.14;100.00;99066.24;4196114;82;28673;-84
2021/12/31 13:46:37;;;;;;;6.85;3.87;;;;;;;14.08;100.00;99060.80;4194663;82;28550;-86
2021/12/31 13:52:48;;;;;;;8.40;4.17;;;;;;;14.31;100.00;99064.80;4180124;82;28592;-85
2021/12/31 13:58:50;;;;;;;8.85;3.80;;;;;;;14.40;100.00;99065.97;4208331;82;28554;-86
2021/12/31 14:04:59;;;;;;;9.20;3.98;;;;;;;14.30;100.00;99064.52;4195221;82;28494;-84
2021/12/31 14:11:00;;;;;;;8.50;4.00;;;;;;;14.44;100.00;99072.52;4209779;82;28513;-84
2021/12/31 14:17:04;;;;;;;8.30;3.95;;;;;;;14.34;100.00;99083.23;4188207;83;28479;-85
2021/12/31 14:23:08;;;;;;;7.05;3.77;;;;;;;14.31;100.00;99079.66;4188963;83;28528;-85
2021/12/31 14:29:13;;;;;;;7.45;3.83;;;;;;;14.14;100.00;99087.88;4188534;83;28540;-84
2021/12/31 14:35:28;;;;;;;8.93;4.15;;;;;;;14.14;100.00;99079.77;4075732;86;28518;-82
2021/12/31 14:41:27;;;;;;;7.53;4.30;;;;;;;14.12;100.00;99084.09;4196892;83;28556;-79
2021/12/31 14:47:29;;;;;;;7.58;4.33;;;;;;;14.06;100.00;99080.52;4185878;83;28482;-81
2021/12/31 14:53:30;;;;;;;8.28;4.22;;;;;;;14.11;100.00;99086.52;4181565;83;28515;-79
2021/12/31 14:59:33;;;;;;;8.48;4.70;;;;;;;14.01;100.00;99091.80;4199542;83;28503;-79
2021/12/31 15:05:34;;;;;;;9.23;4.15;;;;;;;13.89;100.00;99083.27;4191513;83;28575;-77
2021/12/31 15:11:36;;;;;;;7.47;4.15;;;;;;;13.89;100.00;99082.47;4188679;83;28545;-76
2021/12/31 15:17:38;;;;;;;7.90;4.30;;;;;;;13.91;100.00;99070.86;4260089;82;28563;-78
2021/12/31 15:23:40;;;;;;;9.48;4.28;;;;;;;13.74;100.00;99065.53;4274305;82;28548;-80
2021/12/31 15:29:43;;;;;;;7.45;4.28;;;;;;;13.89;100.00;99071.11;4255391;82;28525;-82
2021/12/31 15:35:45;;;;;;;9.48;4.40;;;;;;;13.81;100.00;99071.57;4276782;82;28522;-81
2021/12/31 15:41:47;;;;;;;7.53;4.03;;;;;;;14.04;100.00;99078.58;4269731;82;28525;-78
2021/12/31 15:47:50;;;;;;;10.45;4.75;;;;;;;13.94;100.00;99075.23;4224992;82;28517;-80
2021/12/31 15:53:51;;;;;;;8.15;4.60;;;;;;;14.01;100.00;99074.23;4272010;82;28524;-82
2021/12/31 16:00:00;;;;;;;10.15;5.30;;;;;;;13.84;100.00;99073.77;4252890;82;28511;-84
2021/12/31 16:06:16;;;;;;;10.55;5.37;;;;;;;13.81;100.00;99062.11;4259778;82;28467;-87
2021/12/31 16:12:17;;;;;;;9.38;4.58;;;;;;;13.86;100.00;99062.71;4242136;81;28557;-79
2021/12/31 16:18:19;;;;;;;9.28;5.22;;;;;;;13.93;100.00;99060.61;4209031;83;28517;-80
2021/12/31 16:24:21;;;;;;;11.70;5.03;;;;;;;14.03;100.00;99043.16;4203019;83;28597;-85
2021/12/31 16:30:22;;;;;;;10.10;5.22;;;;;;;13.97;100.00;99049.59;4195187;83;28536;-83
2021/12/31 16:36:24;;;;;;;10.90;5.50;;;;;;;13.94;100.00;99044.16;4211933;83;28546;-85
2021/12/31 16:42:27;;;;;;;10.55;5.60;;;;;;;13.96;100.00;99037.67;4209494;83;28544;-85
2021/12/31 16:48:29;;;;;;;11.22;5.65;;;;;;;13.63;100.00;99034.33;4207931;83;28546;-82
2021/12/31 16:54:32;;;;;;;10.40;5.28;;;;;;;13.74;100.00;99034.45;4206560;83;28533;-80
2021/12/31 17:00:33;;;;;;;10.13;5.33;;;;;;;13.80;100.00;99024.80;4204400;83;28565;-81
2021/12/31 17:06:35;;;;;;;10.15;5.10;;;;;;;13.98;100.00;99022.02;4204223;83;28513;-82
2021/12/31 17:12:36;;;;;;;9.35;4.85;;;;;;;13.87;100.00;99026.51;4189758;83;28571;-79
2021/12/31 17:18:40;;;;;;;10.35;4.75;;;;;;;13.85;100.00;99024.05;4192207;83;28537;-85
2021/12/31 17:24:41;;;;;;;9.08;4.80;;;;;;;13.90;100.00;99021.42;4203002;83;28540;-79
2021/12/31 17:30:43;;;;;;;9.93;5.20;;;;;;;13.91;100.00;99008.70;4193142;83;28574;-81
2021/12/31 17:36:44;;;;;;;11.03;4.25;;;;;;;13.99;100.00;99009.61;4199893;83;28525;-80
2021/12/31 17:42:48;;;;;;;9.35;4.95;;;;;;;13.96;100.00;99000.66;4185212;83;28526;-80
2021/12/31 17:48:49;;;;;;;10.10;4.87;;;;;;;14.03;100.00;98991.00;4165788;83;28625;-81
2021/12/31 17:54:51;;;;;;;9.08;4.85;;;;;;;13.99;100.00;98999.31;4193210;83;28596;-80
2021/12/31 18:00:53;;;;;;;10.40;4.92;;;;;;;14.04;100.00;98989.38;4183806;83;28533;-80
2021/12/31 18:06:54;;;;;;;10.45;5.45;;;;;;;14.05;100.00;98989.65;4196104;83;28607;-79
2021/12/31 18:12:55;;;;;;;11.55;5.62;;;;;;;13.98;100.00;99002.57;4194724;83;28546;-80
2021/12/31 18:19:00;;;;;;;10.72;5.55;;;;;;;14.06;100.00;99005.34;4195382;82;28518;-79
2021/12/31 18:25:00;;;;;;;14.63;6.75;;;;;;;14.03;100.00;99000.45;4204751;82;28518;-79
2021/12/31 18:31:01;;;;;;;16.30;7.53;;;;;;;13.85;100.00;99004.30;4194953;82;28551;-80
2021/12/31 18:37:03;;;;;;;12.95;7.12;;;;;;;13.66;100.00;98993.30;4234156;82;28516;-80
2021/12/31 18:43:04;;;;;;;17.77;8.70;;;;;;;13.73;100.00;98982.84;4192053;82;28607;-81
2021/12/31 18:49:16;;;;;;;18.42;8.88;;;;;;;13.58;100.00;98975.38;4221843;81;28529;-79
2021/12/31 18:55:09;;;;;;;15.63;8.00;;;;;;;13.64;100.00;98969.78;4191904;82;28552;-80
2021/12/31 19:01:10;;;;;;;16.05;8.45;;;;;;;13.42;100.00;98968.41;4196570;82;28491;-80
2021/12/31 19:07:11;;;;;;;14.07;8.20;;;;;;;13.50;100.00;98955.84;4197772;82;28559;-80
2021/12/31 19:13:12;;;;;;;17.25;7.87;;;;;;;13.41;100.00;98957.87;4195272;82;28621;-81
2021/12/31 19:19:14;;;;;;;13.13;6.70;;;;;;;13.36;100.00;98959.42;4191940;82;28529;-83
2021/12/31 19:25:15;;;;;;;15.18;7.92;;;;;;;13.31;100.00;98962.08;4194250;82;28540;-81
2021/12/31 19:31:16;;;;;;;15.45;7.80;;;;;;;13.25;100.00;98966.59;4193007;82;28535;-81
2021/12/31 19:37:18;;;;;;;17.17;8.83;;;;;;;13.36;100.00;98956.72;4201996;82;28611;-80
2021/12/31 19:43:20;;;;;;;18.92;8.90;;;;;;;13.41;100.00;98953.82;4129703;84;28541;-80
2021/12/31 19:49:22;;;;;;;19.65;10.13;;;;;;;13.39;100.00;98959.46;4133556;84;28517;-81
2021/12/31 19:55:25;;;;;;;18.62;10.18;;;;;;;13.41;100.00;98961.38;4146176;84;28504;-80
2021/12/31 20:01:27;;;;;;;15.18;7.72;;;;;;;13.30;100.00;98959.62;4142027;84;28537;-80
2021/12/31 20:07:28;;;;;;;12.28;6.67;;;;;;;13.34;100.00;98955.36;4139453;84;28529;-81
2021/12/31 20:13:31;;;;;;;14.80;6.75;;;;;;;13.31;100.00;98959.89;4139005;84;28548;-81
2021/12/31 20:19:32;;;;;;;12.20;6.62;;;;;;;13.42;100.00;98971.66;4129437;84;28477;-81
2021/12/31 20:25:34;;;;;;;12.73;6.10;;;;;;;13.46;100.00;98968.23;4100019;84;28614;-83
2021/12/31 20:31:36;;;;;;;12.00;5.25;;;;;;;13.36;100.00;98970.22;4130453;83;28667;-79
2021/12/31 20:37:37;;;;;;;8.98;4.97;;;;;;;13.37;100.00;98958.91;4129258;84;28443;-80
2021/12/31 20:43:39;;;;;;;9.98;4.97;;;;;;;13.49;100.00;98962.87;4119281;84;28519;-81
2021/12/31 20:49:40;;;;;;;9.23;5.28;;;;;;;13.34;100.00;98958.06;4130918;84;28565;-81
2021/12/31 20:55:44;;;;;;;11.43;5.72;;;;;;;13.37;100.00;98953.50;4130807;84;28526;-82
2021/12/31 21:01:45;;;;;;;10.70;4.83;;;;;;;13.41;100.00;98945.72;4126300;84;28502;-81
2021/12/31 21:07:48;;;;;;;9.05;4.35;;;;;;;13.41;100.00;98945.17;4130485;84;28528;-81
2021/12/31 21:13:49;;;;;;;8.98;4.62;;;;;;;13.39;100.00;98938.69;4118754;84;28489;-80
2021/12/31 21:19:52;;;;;;;11.30;4.65;;;;;;;13.43;100.00;98947.08;4055785;85;28520;-80
2021/12/31 21:25:53;;;;;;;8.73;4.80;;;;;;;13.45;100.00;98949.05;4054859;86;28590;-80
2021/12/31 21:31:55;;;;;;;7.62;3.85;;;;;;;13.28;100.00;98940.98;4051828;86;28481;-81
2021/12/31 21:37:56;;;;;;;7.95;4.03;;;;;;;13.47;100.00;98942.02;4054967;85;28520;-82
2021/12/31 21:43:58;;;;;;;7.33;3.30;;;;;;;13.46;100.00;98945.80;4184464;83;28589;-82
2021/12/31 21:49:59;;;;;;;4.67;2.83;;;;;;;13.55;100.00;98958.34;4181282;83;28493;-81
2021/12/31 21:56:01;;;;;;;6.62;2.70;;;;;;;13.51;100.00;98953.97;4189069;83;28514;-81
2021/12/31 22:02:02;;;;;;;5.92;2.75;;;;;;;13.56;100.00;98953.22;4175694;83;28568;-81
2021/12/31 22:08:04;;;;;;;6.00;2.70;;;;;;;13.49;100.00;98946.11;4165445;83;28556;-80
2021/12/31 22:14:06;;;;;;;5.58;2.58;;;;;;;13.63;100.00;98951.94;4178205;83;28582;-80
2021/12/31 22:20:08;;;;;;;5.17;2.62;;;;;;;13.45;100.00;98965.25;4218817;83;28528;-81
2021/12/31 22:26:09;;;;;;;4.20;2.25;;;;;;;13.53;100.00;98962.63;4216230;83;28612;-82
2021/12/31 22:32:14;;;;;;;4.97;3.00;;;;;;;13.50;100.00;98966.64;4205133;83;28528;-80
2021/12/31 22:38:15;;;;;;;6.20;3.45;;;;;;;13.45;100.00;98963.06;4208623;83;28489;-80
2021/12/31 22:44:17;;;;;;;7.97;2.90;;;;;;;13.29;100.00;98970.13;4196592;83;28913;-82
2021/12/31 22:50:18;;;;;;;6.25;3.37;;;;;;;13.22;100.00;98970.33;4201860;83;28569;-80
2021/12/31 22:56:19;;;;;;;6.62;3.70;;;;;;;13.18;100.00;98964.60;4207389;83;28504;-80
2021/12/31 23:02:21;;;;;;;22.20;14.68;;;;;;;12.90;100.00;98953.44;4201694;83;28524;-80
2021/12/31 23:08:23;;;;;;;24.47;15.95;;;;;;;13.05;100.00;98962.28;4203919;83;28545;-81
2021/12/31 23:14:24;;;;;;;24.90;14.50;;;;;;;12.71;100.00;98960.45;4199855;83;28547;-81
2021/12/31 23:20:25;;;;;;;12.10;7.53;;;;;;;12.80;100.00;98960.31;4199576;83;28556;-80
2021/12/31 23:26:27;;;;;;;13.83;7.75;;;;;;;12.66;100.00;98960.39;4208530;83;28520;-80
2021/12/31 23:32:28;;;;;;;11.93;6.72;;;;;;;12.77;100.00;98974.31;4198459;83;28557;-79
2021/12/31 23:38:30;;;;;;;9.18;6.05;;;;;;;12.46;100.00;98971.14;4196065;83;28516;-80
2021/12/31 23:44:31;;;;;;;12.28;6.05;;;;;;;12.60;100.00;98963.55;4189006;83;28511;-79
2021/12/31 23:50:33;;;;;;;10.45;5.65;;;;;;;12.46;100.00;98975.70;4198753;83;28544;-81
2021/12/31 23:56:34;;;;;;;10.88;5.75;;;;;;;12.53;100.00;98977.72;4195790;83;28546;-80
